createdAt,value
2022-12-07T00:00:18.928Z,8.92857
2022-12-07T00:01:18.959Z,8.71429
2022-12-07T00:02:19.096Z,8.14286
2022-12-07T00:03:19.084Z,8.64286
2022-12-07T00:04:19.041Z,7.92857
2022-12-07T00:05:19.084Z,8
2022-12-07T00:06:19.111Z,8.42857
2022-12-07T00:07:22.466Z,8
2022-12-07T00:08:19.234Z,7.42857
2022-12-07T00:09:19.197Z,7.21429
2022-12-07T00:10:19.234Z,7.71429
2022-12-07T00:11:19.268Z,7
2022-12-07T00:12:19.305Z,6.92857
2022-12-07T00:13:19.327Z,6.85714
2022-12-07T00:14:19.355Z,7.35714
2022-12-07T00:15:19.390Z,6.64286
2022-12-07T00:16:19.488Z,6.64286
2022-12-07T00:17:19.455Z,6.21429
2022-12-07T00:18:19.489Z,6.35714
2022-12-07T00:19:19.525Z,6.5
2022-12-07T00:20:19.551Z,6.14286
2022-12-07T00:21:19.585Z,6.21429
2022-12-07T00:22:19.619Z,6.71429
2022-12-07T00:23:19.644Z,6.42857
2022-12-07T00:24:19.677Z,6.5
2022-12-07T00:25:19.719Z,6.71429
2022-12-07T00:26:19.754Z,6.35714
2022-12-07T00:27:19.783Z,6.42857
2022-12-07T00:28:19.818Z,6.92857
2022-12-07T00:29:19.859Z,6.64286
2022-12-07T00:30:19.894Z,7.21429
2022-12-07T00:31:19.959Z,6.14286
2022-12-07T00:32:20.057Z,6.64286
2022-12-07T00:33:19.986Z,6.35714
2022-12-07T00:34:20.015Z,6.92857
2022-12-07T00:35:20.045Z,6.71429
2022-12-07T00:36:26.082Z,6.5
2022-12-07T00:37:20.113Z,6.71429
2022-12-07T00:38:20.143Z,6.42857
2022-12-07T00:39:20.175Z,6.5
2022-12-07T00:40:20.211Z,6.35714
2022-12-07T00:41:20.239Z,6.5
2022-12-07T00:42:20.266Z,7.14286
2022-12-07T00:43:20.307Z,6.35714
2022-12-07T00:44:20.343Z,6.21429
2022-12-07T00:45:20.377Z,6.85714
2022-12-07T00:46:20.453Z,6.71429
2022-12-07T00:47:20.444Z,6.42857
2022-12-07T00:48:20.464Z,6.5
2022-12-07T00:49:20.504Z,6.42857
2022-12-07T00:50:20.535Z,6.92857
2022-12-07T00:51:20.557Z,6.35714
2022-12-07T00:52:20.589Z,6.5
2022-12-07T00:53:20.627Z,6.35714
2022-12-07T00:54:20.645Z,6
2022-12-07T00:55:20.677Z,6.21429
2022-12-07T00:56:20.709Z,6.5
2022-12-07T00:57:20.755Z,5.71429
2022-12-07T00:58:20.773Z,6.14286
2022-12-07T00:59:20.805Z,6.42857
2022-12-07T01:00:20.831Z,6.14286
2022-12-07T01:01:20.940Z,6.14286
2022-12-07T01:02:20.908Z,5.71429
2022-12-07T01:03:20.966Z,5.71429
2022-12-07T01:04:20.957Z,6.14286
2022-12-07T01:05:20.993Z,5.5
2022-12-07T01:06:21.015Z,5.71429
2022-12-07T01:07:21.025Z,5.71429
2022-12-07T01:08:21.144Z,6.42857
2022-12-07T01:09:21.096Z,5.71429
2022-12-07T01:10:21.120Z,5.71429
2022-12-07T01:11:21.158Z,5.5
2022-12-07T01:12:21.187Z,5.64286
2022-12-07T01:13:21.204Z,5.85714
2022-12-07T01:14:21.228Z,5.92857
2022-12-07T01:15:21.265Z,5.85714
2022-12-07T01:16:21.325Z,5.42857
2022-12-07T01:17:21.327Z,5.85714
2022-12-07T01:18:21.365Z,6.14286
2022-12-07T01:19:21.395Z,5.92857
2022-12-07T01:20:21.426Z,5.71429
2022-12-07T01:21:21.444Z,5.92857
2022-12-07T01:22:21.471Z,5.92857
2022-12-07T01:23:21.512Z,5.5
2022-12-07T01:24:21.531Z,5.5
2022-12-07T01:25:21.569Z,5.85714
2022-12-07T01:26:21.606Z,5.92857
2022-12-07T01:27:21.632Z,6
2022-12-07T01:28:21.664Z,5.64286
2022-12-07T01:29:21.699Z,5.64286
2022-12-07T01:30:21.744Z,5.92857
2022-12-07T01:31:21.885Z,5.71429
2022-12-07T01:32:21.799Z,5.42857
2022-12-07T01:33:21.838Z,5.35714
2022-12-07T01:34:21.876Z,5.85714
2022-12-07T01:35:21.936Z,5.64286
2022-12-07T01:36:21.949Z,5.71429
2022-12-07T01:37:21.979Z,5.5
2022-12-07T01:38:22.019Z,5.85714
2022-12-07T01:39:22.050Z,5.14286
2022-12-07T01:40:22.078Z,6
2022-12-07T01:41:22.105Z,6.64286
2022-12-07T01:42:22.149Z,5.92857
2022-12-07T01:43:22.186Z,6
2022-12-07T01:44:22.211Z,5.64286
2022-12-07T01:45:22.236Z,6.14286
2022-12-07T01:46:22.297Z,5.5
2022-12-07T01:47:22.306Z,5.85714
2022-12-07T01:48:22.338Z,5.92857
2022-12-07T01:49:22.348Z,5.85714
2022-12-07T01:50:22.380Z,5.64286
2022-12-07T01:51:22.420Z,5.92857
2022-12-07T01:52:22.441Z,5.85714
2022-12-07T01:53:22.492Z,5.92857
2022-12-07T01:54:22.517Z,5.92857
2022-12-07T01:55:22.555Z,5.85714
2022-12-07T01:56:22.583Z,5.92857
2022-12-07T01:57:22.610Z,6.42857
2022-12-07T01:58:22.645Z,5.71429
2022-12-07T01:59:22.673Z,5.71429
2022-12-07T02:00:22.710Z,6
2022-12-07T02:01:22.870Z,5.92857
2022-12-07T02:02:22.824Z,5.71429
2022-12-07T02:03:22.811Z,5.71429
2022-12-07T02:04:22.836Z,5.85714
2022-12-07T02:05:22.866Z,5.71429
2022-12-07T02:06:22.890Z,6.21429
2022-12-07T02:07:22.927Z,5.92857
2022-12-07T02:08:23.023Z,6.14286
2022-12-07T02:09:22.986Z,5.71429
2022-12-07T02:10:23.018Z,5.14286
2022-12-07T02:11:23.059Z,5.42857
2022-12-07T02:12:23.088Z,6
2022-12-07T02:13:23.114Z,6.35714
2022-12-07T02:14:23.151Z,6.5
2022-12-07T02:15:23.195Z,6.85714
2022-12-07T02:16:23.286Z,6.14286
2022-12-07T02:17:23.252Z,6.64286
2022-12-07T02:18:23.296Z,6.14286
2022-12-07T02:19:23.322Z,6.42857
2022-12-07T02:20:23.361Z,7.14286
2022-12-07T02:21:23.382Z,6.71429
2022-12-07T02:22:23.421Z,7.21429
2022-12-07T02:23:23.458Z,6.5
2022-12-07T02:24:23.488Z,6.71429
2022-12-07T02:25:23.515Z,6.85714
2022-12-07T02:26:23.553Z,7.42857
2022-12-07T02:27:23.583Z,7.21429
2022-12-07T02:28:23.618Z,6.42857
2022-12-07T02:29:23.641Z,6.85714
2022-12-07T02:30:23.682Z,7.14286
2022-12-07T02:31:23.747Z,7.42857
2022-12-07T02:32:23.749Z,7.42857
2022-12-07T02:33:23.787Z,7.42857
2022-12-07T02:34:23.820Z,7.35714
2022-12-07T02:35:23.844Z,7.42857
2022-12-07T02:36:23.866Z,7.64286
2022-12-07T02:37:23.906Z,7.21429
2022-12-07T02:38:23.939Z,7.85714
2022-12-07T02:39:23.975Z,7.42857
2022-12-07T02:40:24.003Z,7.92857
2022-12-07T02:41:24.034Z,8.5
2022-12-07T02:42:24.070Z,7.92857
2022-12-07T02:43:24.092Z,7.64286
2022-12-07T02:44:24.127Z,7.35714
2022-12-07T02:45:24.162Z,8.71429
2022-12-07T02:46:24.319Z,8
2022-12-07T02:47:24.223Z,8.14286
2022-12-07T02:48:24.256Z,8.5
2022-12-07T02:49:24.289Z,8.35714
2022-12-07T02:50:24.321Z,8.21429
2022-12-07T02:51:24.360Z,8.5
2022-12-07T02:52:24.405Z,8.35714
2022-12-07T02:53:24.431Z,8.42857
2022-12-07T02:54:24.476Z,8.85714
2022-12-07T02:55:24.514Z,8.5
2022-12-07T02:56:24.547Z,8.5
2022-12-07T02:57:24.604Z,9
2022-12-07T02:58:24.606Z,8.85714
2022-12-07T02:59:24.638Z,8.42857
2022-12-07T03:00:24.672Z,9
2022-12-07T03:01:24.730Z,9.64286
2022-12-07T03:02:24.789Z,9.5
2022-12-07T03:03:24.757Z,9.21429
2022-12-07T03:04:24.802Z,9.92857
2022-12-07T03:05:24.834Z,10.2143
2022-12-07T03:06:24.870Z,9.85714
2022-12-07T03:07:24.895Z,9.5
2022-12-07T03:08:24.964Z,9.35714
2022-12-07T03:09:24.965Z,9.21429
2022-12-07T03:10:24.998Z,9.71429
2022-12-07T03:11:25.030Z,8.85714
2022-12-07T03:12:25.062Z,9.71429
2022-12-07T03:13:25.099Z,10
2022-12-07T03:14:25.124Z,9.5
2022-12-07T03:15:25.165Z,9.14286
2022-12-07T03:16:25.320Z,10
2022-12-07T03:17:25.231Z,9.42857
2022-12-07T03:18:25.254Z,10.1429
2022-12-07T03:19:25.287Z,9.71429
2022-12-07T03:20:25.314Z,10.6429
2022-12-07T03:21:25.345Z,10.8571
2022-12-07T03:22:25.391Z,9.85714
2022-12-07T03:23:25.413Z,10
2022-12-07T03:24:25.454Z,10.6429
2022-12-07T03:25:25.480Z,10
2022-12-07T03:26:25.515Z,10.7143
2022-12-07T03:27:25.539Z,9.71429
2022-12-07T03:28:25.578Z,10.2143
2022-12-07T03:29:25.602Z,10.5
2022-12-07T03:30:25.639Z,10.3571
2022-12-07T03:31:25.716Z,9.85714
2022-12-07T03:32:25.702Z,10.4286
2022-12-07T03:33:25.730Z,10
2022-12-07T03:34:25.744Z,10.5
2022-12-07T03:35:25.776Z,9.92857
2022-12-07T03:36:25.799Z,10.5
2022-12-07T03:37:25.830Z,10.3571
2022-12-07T03:38:25.854Z,10.3571
2022-12-07T03:39:25.892Z,9.64286
2022-12-07T03:40:25.930Z,10.6429
2022-12-07T03:41:25.956Z,10.6429
2022-12-07T03:42:25.989Z,9.92857
2022-12-07T03:43:26.018Z,10.6429
2022-12-07T03:44:26.061Z,10.2143
2022-12-07T03:45:26.087Z,10.2143
2022-12-07T03:46:26.162Z,10.9286
2022-12-07T03:47:26.139Z,10.7143
2022-12-07T03:48:26.164Z,10.9286
2022-12-07T03:49:26.193Z,11.7143
2022-12-07T03:50:26.230Z,10.7143
2022-12-07T03:51:26.290Z,10.9286
2022-12-07T03:52:26.296Z,11
2022-12-07T03:53:26.322Z,11.2143
2022-12-07T03:54:26.356Z,10.8571
2022-12-07T03:55:26.392Z,10.7143
2022-12-07T03:56:26.427Z,10.9286
2022-12-07T03:57:26.459Z,11.7143
2022-12-07T03:58:26.470Z,10.8571
2022-12-07T03:59:26.497Z,11.5
2022-12-07T04:00:26.529Z,11.4286
2022-12-07T04:01:26.623Z,11.6429
2022-12-07T04:02:26.634Z,12
2022-12-07T04:03:26.745Z,11.5
2022-12-07T04:04:26.667Z,11.5
2022-12-07T04:05:26.704Z,10.7143
2022-12-07T04:06:26.728Z,11.4286
2022-12-07T04:07:26.755Z,12.2143
2022-12-07T04:08:26.796Z,12.2143
2022-12-07T04:09:26.819Z,12
2022-12-07T04:10:26.862Z,11.8571
2022-12-07T04:11:26.881Z,11.6429
2022-12-07T04:12:26.919Z,12.5
2022-12-07T04:13:26.940Z,12
2022-12-07T04:14:26.973Z,12.5
2022-12-07T04:15:27.005Z,12.4286
2022-12-07T04:16:27.171Z,12.9286
2022-12-07T04:17:27.069Z,12.7143
2022-12-07T04:18:27.084Z,12.4286
2022-12-07T04:19:27.109Z,12.9286
2022-12-07T04:20:27.152Z,12
2022-12-07T04:21:27.179Z,12.6429
2022-12-07T04:22:27.208Z,13.4286
2022-12-07T04:23:27.240Z,13.1429
2022-12-07T04:24:27.294Z,13.4286
2022-12-07T04:25:27.322Z,13.4286
2022-12-07T04:26:27.346Z,13.7143
2022-12-07T04:27:27.378Z,14.8571
2022-12-07T04:28:27.402Z,14
2022-12-07T04:29:27.428Z,14
2022-12-07T04:30:27.459Z,14
2022-12-07T04:31:27.554Z,13.2143
2022-12-07T04:32:27.530Z,13.3571
2022-12-07T04:33:27.558Z,14.6429
2022-12-07T04:34:27.596Z,13.7143
2022-12-07T04:35:27.620Z,14.6429
2022-12-07T04:36:27.661Z,14.6429
2022-12-07T04:37:27.686Z,14.4286
2022-12-07T04:38:27.716Z,13.7143
2022-12-07T04:39:27.749Z,15.2143
2022-12-07T04:40:27.787Z,14.7143
2022-12-07T04:41:27.869Z,14.4286
2022-12-07T04:42:27.865Z,14.9286
2022-12-07T04:43:27.887Z,14.5
2022-12-07T04:44:27.918Z,15.2143
2022-12-07T04:45:27.939Z,15.5
2022-12-07T04:46:28.127Z,15
2022-12-07T04:47:28.019Z,15.2143
2022-12-07T04:48:28.032Z,16.1429
2022-12-07T04:49:28.060Z,15.1429
2022-12-07T04:50:28.096Z,15.1429
2022-12-07T04:51:28.115Z,15.4286
2022-12-07T04:52:28.158Z,16.8571
2022-12-07T04:53:28.194Z,15.3571
2022-12-07T04:54:28.225Z,15.3571
2022-12-07T04:55:28.244Z,16.2143
2022-12-07T04:56:28.284Z,15.6429
2022-12-07T04:57:28.315Z,15.4286
2022-12-07T04:58:28.339Z,15.9286
2022-12-07T04:59:28.370Z,16
2022-12-07T05:00:28.439Z,15.5
2022-12-07T05:01:28.470Z,15.7143
2022-12-07T05:02:28.529Z,16.9286
2022-12-07T05:03:28.498Z,15.9286
2022-12-07T05:04:28.531Z,16.9286
2022-12-07T05:05:28.572Z,17.4286
2022-12-07T05:06:28.616Z,15.9286
2022-12-07T05:07:28.627Z,16.5
2022-12-07T05:08:28.663Z,16.9286
2022-12-07T05:09:28.701Z,16.5
2022-12-07T05:10:28.734Z,16.4286
2022-12-07T05:11:28.771Z,17.2143
2022-12-07T05:12:28.816Z,17.7143
2022-12-07T05:13:28.834Z,16.9286
2022-12-07T05:14:28.862Z,16.5
2022-12-07T05:15:28.893Z,16.7143
2022-12-07T05:16:29.036Z,18.2143
2022-12-07T05:17:28.969Z,16.9286
2022-12-07T05:18:28.981Z,17.4286
2022-12-07T05:19:29.025Z,17.6429
2022-12-07T05:20:29.055Z,15.8571
2022-12-07T05:21:29.071Z,17.6429
2022-12-07T05:22:29.116Z,16.5
2022-12-07T05:23:29.142Z,17.7143
2022-12-07T05:24:29.177Z,16.8571
2022-12-07T05:25:29.215Z,17.2143
2022-12-07T05:26:29.247Z,17.6429
2022-12-07T05:27:29.269Z,16.4286
2022-12-07T05:28:29.297Z,16.6429
2022-12-07T05:29:29.341Z,17.3571
2022-12-07T05:30:29.380Z,17.2143
2022-12-07T05:31:29.476Z,17.7143
2022-12-07T05:32:29.438Z,17.1429
2022-12-07T05:33:29.473Z,17.4286
2022-12-07T05:34:29.506Z,17.8571
2022-12-07T05:35:29.530Z,17
2022-12-07T05:36:29.671Z,17.8571
2022-12-07T05:37:29.596Z,17.8571
2022-12-07T05:38:29.633Z,18.4286
2022-12-07T05:39:29.663Z,17.5
2022-12-07T05:40:29.697Z,17.4286
2022-12-07T05:41:29.743Z,17.4286
2022-12-07T05:42:29.784Z,17.9286
2022-12-07T05:43:29.799Z,18
2022-12-07T05:44:29.843Z,17.3571
2022-12-07T05:45:29.973Z,17.5
2022-12-07T05:46:29.880Z,18.1429
2022-12-07T05:47:29.900Z,17.3571
2022-12-07T05:48:29.942Z,18.1429
2022-12-07T05:49:29.984Z,17.9286
2022-12-07T05:50:30.049Z,18.5
2022-12-07T05:51:30.040Z,18.2143
2022-12-07T05:52:30.071Z,18.5
2022-12-07T05:53:30.094Z,17.4286
2022-12-07T05:54:30.132Z,18.4286
2022-12-07T05:55:30.171Z,17.7143
2022-12-07T05:56:30.214Z,18.8571
2022-12-07T05:57:30.235Z,18.6429
2022-12-07T05:58:30.417Z,18.3571
2022-12-07T05:59:30.314Z,18
2022-12-07T06:00:30.335Z,19
2022-12-07T06:01:30.371Z,18
2022-12-07T06:02:30.475Z,18.4286
2022-12-07T06:03:30.531Z,18.5
2022-12-07T06:04:30.471Z,18.8571
2022-12-07T06:05:30.510Z,18.7143
2022-12-07T06:06:30.611Z,18.1429
2022-12-07T06:07:30.552Z,17.6429
2022-12-07T06:08:30.641Z,18.5
2022-12-07T06:09:30.620Z,18.1429
2022-12-07T06:10:30.649Z,17.9286
2022-12-07T06:11:30.677Z,17.6429
2022-12-07T06:12:30.705Z,16.8571
2022-12-07T06:13:30.741Z,17.2143
2022-12-07T06:14:30.766Z,16.5
2022-12-07T06:15:30.791Z,17
2022-12-07T06:16:30.904Z,16.8571
2022-12-07T06:17:30.862Z,17.6429
2022-12-07T06:18:30.901Z,17.5
2022-12-07T06:19:30.925Z,17.6429
2022-12-07T06:20:30.959Z,18.2143
2022-12-07T06:21:30.991Z,17.6429
2022-12-07T06:22:31.028Z,17.6429
2022-12-07T06:23:31.069Z,18.2143
2022-12-07T06:24:31.092Z,18.7143
2022-12-07T06:25:31.148Z,19.3571
2022-12-07T06:26:31.168Z,18.1429
2022-12-07T06:27:31.203Z,17.2143
2022-12-07T06:28:31.235Z,18.7143
2022-12-07T06:29:31.267Z,18.3571
2022-12-07T06:30:31.317Z,18.4286
2022-12-07T06:31:31.355Z,17.9286
2022-12-07T06:32:31.350Z,18.4286
2022-12-07T06:33:31.376Z,18.2143
2022-12-07T06:34:31.418Z,18.7143
2022-12-07T06:35:31.441Z,19.7143
2022-12-07T06:36:31.488Z,19.2143
2022-12-07T06:37:31.511Z,18.2143
2022-12-07T06:38:31.545Z,18.9286
2022-12-07T06:39:31.576Z,18
2022-12-07T06:40:31.591Z,17.8571
2022-12-07T06:41:31.664Z,17.3571
2022-12-07T06:42:31.665Z,18.5
2022-12-07T06:43:31.688Z,17.5
2022-12-07T06:44:31.717Z,17.6429
2022-12-07T06:45:31.795Z,18.1429
2022-12-07T06:46:31.871Z,18.7143
2022-12-07T06:47:40.625Z,16
2022-12-07T06:48:31.854Z,17.5
2022-12-07T06:49:31.891Z,18.1429
2022-12-07T06:50:31.923Z,18.2143
2022-12-07T06:51:31.949Z,17.3571
2022-12-07T06:52:31.981Z,18.1429
2022-12-07T06:53:32.018Z,17.6429
2022-12-07T06:54:32.044Z,18.1429
2022-12-07T06:55:32.069Z,17.4286
2022-12-07T06:56:32.093Z,17.5
2022-12-07T06:57:32.125Z,17.3571
2022-12-07T06:58:32.156Z,18.4286
2022-12-07T06:59:32.173Z,17.4286
2022-12-07T07:00:32.197Z,17.2143
2022-12-07T07:01:32.333Z,16.8571
2022-12-07T07:02:32.334Z,16.8571
2022-12-07T07:03:32.307Z,18.5
2022-12-07T07:04:32.320Z,18.3571
2022-12-07T07:05:32.343Z,18.5
2022-12-07T07:06:32.384Z,18.1429
2022-12-07T07:07:41.671Z,16.8571
2022-12-07T07:08:32.478Z,17.4286
2022-12-07T07:09:32.465Z,17.7143
2022-12-07T07:10:32.498Z,17.4286
2022-12-07T07:11:32.534Z,17
2022-12-07T07:12:32.589Z,17.8571
2022-12-07T07:13:32.598Z,16.9286
2022-12-07T07:14:32.619Z,17.4286
2022-12-07T07:15:32.651Z,16.9286
2022-12-07T07:16:32.742Z,17.3571
2022-12-07T07:17:32.716Z,17.5
2022-12-07T07:18:32.745Z,17.9286
2022-12-07T07:19:32.767Z,17.7143
2022-12-07T07:20:32.797Z,16.7143
2022-12-07T07:21:32.838Z,16.7143
2022-12-07T07:22:32.857Z,16.5
2022-12-07T07:23:32.882Z,16.7143
2022-12-07T07:24:32.918Z,16
2022-12-07T07:25:32.949Z,15.7143
2022-12-07T07:26:33.053Z,17
2022-12-07T07:27:33.012Z,16.4286
2022-12-07T07:28:33.053Z,16.4286
2022-12-07T07:29:33.070Z,16.3571
2022-12-07T07:30:33.155Z,14.9286
2022-12-07T07:31:33.161Z,13.6429
2022-12-07T07:32:33.159Z,13.8571
2022-12-07T07:33:33.195Z,13.5
2022-12-07T07:34:33.217Z,12.4286
2022-12-07T07:35:33.248Z,11.6429
2022-12-07T07:36:33.279Z,13
2022-12-07T07:37:33.313Z,12.4286
2022-12-07T07:38:33.333Z,12.5
2022-12-07T07:39:33.369Z,12.2143
2022-12-07T07:40:33.389Z,11.9286
2022-12-07T07:41:33.416Z,12.8571
2022-12-07T07:42:33.459Z,12.5
2022-12-07T07:43:33.481Z,12.4286
2022-12-07T07:44:35.353Z,12.2143
2022-12-07T07:45:33.538Z,11.2143
2022-12-07T07:46:33.618Z,10.8571
2022-12-07T07:47:33.670Z,10.5
2022-12-07T07:48:33.651Z,10.7143
2022-12-07T07:49:33.799Z,9.92857
2022-12-07T07:50:33.707Z,10.4286
2022-12-07T07:51:33.753Z,11.2143
2022-12-07T07:52:33.790Z,10
2022-12-07T07:53:33.796Z,9.71429
2022-12-07T07:54:33.836Z,8.35714
2022-12-07T07:55:33.860Z,8.64286
2022-12-07T07:56:33.892Z,8.35714
2022-12-07T07:57:33.925Z,7.42857
2022-12-07T07:58:33.956Z,8.42857
2022-12-07T07:59:33.980Z,7.92857
2022-12-07T08:00:34.012Z,6.5
2022-12-07T08:01:34.106Z,7.21429
2022-12-07T08:02:34.070Z,7
2022-12-07T08:03:34.103Z,7.14286
2022-12-07T08:04:34.237Z,7.35714
2022-12-07T08:05:34.168Z,6.71429
2022-12-07T08:06:34.192Z,7.14286
2022-12-07T08:07:34.292Z,6.35714
2022-12-07T08:08:34.248Z,6.21429
2022-12-07T08:09:34.280Z,5.5
2022-12-07T08:10:34.317Z,5.5
2022-12-07T08:11:34.387Z,5.35714
2022-12-07T08:12:34.380Z,5.21429
2022-12-07T08:13:34.411Z,5.71429
2022-12-07T08:14:34.447Z,5.21429
2022-12-07T08:15:34.525Z,5
2022-12-07T08:16:34.522Z,4.14286
2022-12-07T08:17:34.530Z,4.85714
2022-12-07T08:18:34.567Z,4.5
2022-12-07T08:19:34.599Z,4
2022-12-07T08:20:34.628Z,4.21429
2022-12-07T08:21:34.650Z,4.5
2022-12-07T08:22:34.685Z,4.42857
2022-12-07T08:23:39.232Z,4.64286
2022-12-07T08:24:34.763Z,4.42857
2022-12-07T08:25:34.794Z,4.64286
2022-12-07T08:26:34.825Z,4.42857
2022-12-07T08:27:34.852Z,4.71429
2022-12-07T08:28:34.892Z,4.92857
2022-12-07T08:29:34.910Z,4.64286
2022-12-07T08:30:34.945Z,4.92857
2022-12-07T08:31:35.033Z,5.14286
2022-12-07T08:32:35.000Z,5.35714
2022-12-07T08:33:35.019Z,5
2022-12-07T08:34:35.066Z,5.85714
2022-12-07T08:35:35.097Z,5.14286
2022-12-07T08:36:35.122Z,5.35714
2022-12-07T08:37:35.155Z,5.64286
2022-12-07T08:38:35.188Z,5.21429
2022-12-07T08:39:35.217Z,5
2022-12-07T08:40:35.304Z,4.85714
2022-12-07T08:41:35.268Z,5
2022-12-07T08:42:35.286Z,4.71429
2022-12-07T08:43:35.318Z,5.21429
2022-12-07T08:44:35.356Z,4.35714
2022-12-07T08:45:35.388Z,4.21429
2022-12-07T08:46:35.535Z,3.92857
2022-12-07T08:47:35.447Z,4.14286
2022-12-07T08:48:35.476Z,3.85714
2022-12-07T08:49:35.508Z,3.42857
2022-12-07T08:50:35.540Z,3.42857
2022-12-07T08:51:35.567Z,3.85714
2022-12-07T08:52:35.600Z,3.85714
2022-12-07T08:53:35.631Z,3.85714
2022-12-07T08:54:35.662Z,3.5
2022-12-07T08:55:35.705Z,3.35714
2022-12-07T08:56:35.723Z,3.21429
2022-12-07T08:57:35.757Z,2.85714
2022-12-07T08:58:35.781Z,2.92857
2022-12-07T08:59:35.821Z,2.92857
2022-12-07T09:00:35.844Z,3
2022-12-07T09:01:36.030Z,3
2022-12-07T09:02:35.913Z,2.92857
2022-12-07T09:03:35.950Z,2.85714
2022-12-07T09:04:35.973Z,2.85714
2022-12-07T09:05:36.037Z,2.85714
2022-12-07T09:06:36.185Z,3
2022-12-07T09:07:36.202Z,2.85714
2022-12-07T09:08:36.103Z,3.35714
2022-12-07T09:09:36.134Z,3.14286
2022-12-07T09:10:36.171Z,2.85714
2022-12-07T09:11:36.207Z,3.21429
2022-12-07T09:12:36.234Z,3
2022-12-07T09:13:36.274Z,3.35714
2022-12-07T09:14:36.304Z,2.71429
2022-12-07T09:15:36.413Z,3.35714
2022-12-07T09:16:36.460Z,3
2022-12-07T09:17:36.461Z,2.92857
2022-12-07T09:18:36.420Z,2.92857
2022-12-07T09:19:36.443Z,3
2022-12-07T09:20:36.489Z,2.85714
2022-12-07T09:21:36.526Z,3
2022-12-07T09:22:36.552Z,2.71429
2022-12-07T09:23:36.594Z,2.92857
2022-12-07T09:24:36.621Z,3.35714
2022-12-07T09:25:36.651Z,3.14286
2022-12-07T09:26:36.682Z,3.14286
2022-12-07T09:27:36.744Z,3.21429
2022-12-07T09:28:36.737Z,3
2022-12-07T09:29:36.775Z,3.21429
2022-12-07T09:30:59.644Z,2.85714
2022-12-07T09:31:36.884Z,3
2022-12-07T09:32:36.902Z,2.85714
2022-12-07T09:33:36.877Z,3.14286
2022-12-07T09:34:37.005Z,3.14286
2022-12-07T09:35:36.940Z,3.5
2022-12-07T09:36:36.958Z,3.35714
2022-12-07T09:37:36.986Z,3.35714
2022-12-07T09:38:37.022Z,2.92857
2022-12-07T09:39:37.087Z,2.71429
2022-12-07T09:40:37.075Z,2.71429
2022-12-07T09:41:37.107Z,2.64286
2022-12-07T09:42:37.217Z,3
2022-12-07T09:43:37.175Z,2.92857
2022-12-07T09:44:37.219Z,2.71429
2022-12-07T09:45:37.239Z,2.71429
2022-12-07T09:46:37.320Z,2.5
2022-12-07T09:47:37.290Z,2.64286
2022-12-07T09:48:37.306Z,2.71429
2022-12-07T09:49:37.343Z,2.92857
2022-12-07T09:50:37.387Z,2.85714
2022-12-07T09:51:37.410Z,2.5
2022-12-07T09:52:39.288Z,2.71429
2022-12-07T09:53:37.455Z,2.64286
2022-12-07T09:54:37.492Z,2.64286
2022-12-07T09:55:37.520Z,2.35714
2022-12-07T09:56:37.552Z,2.64286
2022-12-07T09:57:37.577Z,2.64286
2022-12-07T09:58:37.614Z,2.92857
2022-12-07T09:59:37.660Z,3
2022-12-07T10:00:37.684Z,3.21429
2022-12-07T10:01:37.763Z,3.14286
2022-12-07T10:02:37.747Z,3.21429
2022-12-07T10:03:37.758Z,3.42857
2022-12-07T10:04:37.845Z,3.5
2022-12-07T10:05:37.833Z,3.85714
2022-12-07T10:06:37.873Z,3.64286
2022-12-07T10:07:37.979Z,3.71429
2022-12-07T10:08:37.942Z,3.85714
2022-12-07T10:09:37.973Z,4.35714
2022-12-07T10:10:38.695Z,4.5
2022-12-07T10:11:38.024Z,4.42857
2022-12-07T10:12:38.051Z,4.14286
2022-12-07T10:13:38.125Z,3.85714
2022-12-07T10:15:05.548Z,3.85714
2022-12-07T10:15:38.165Z,3.92857
2022-12-07T10:16:38.241Z,4
2022-12-07T10:17:38.220Z,3.92857
2022-12-07T10:18:38.265Z,3.92857
2022-12-07T10:19:38.504Z,4
2022-12-07T10:20:38.499Z,3.71429
2022-12-07T10:21:38.532Z,4
2022-12-07T10:22:38.561Z,3.92857
2022-12-07T10:23:38.598Z,4.21429
2022-12-07T10:24:38.655Z,3.85714
2022-12-07T10:25:38.657Z,3.92857
2022-12-07T10:26:38.679Z,4.21429
2022-12-07T10:27:38.704Z,4.14286
2022-12-07T10:28:42.034Z,4.14286
2022-12-07T10:29:38.755Z,4.42857
2022-12-07T10:30:38.798Z,4.21429
2022-12-07T10:31:38.957Z,4.14286
2022-12-07T10:32:38.860Z,4.5
2022-12-07T10:33:38.897Z,4.5
2022-12-07T10:34:42.615Z,5
2022-12-07T10:35:38.964Z,5.14286
2022-12-07T10:36:39.026Z,4.35714
2022-12-07T10:37:39.011Z,4.14286
2022-12-07T10:38:39.052Z,4.64286
2022-12-07T10:39:39.081Z,4.5
2022-12-07T10:40:44.873Z,3.92857
2022-12-07T10:41:39.145Z,3.85714
2022-12-07T10:42:39.186Z,4.14286
2022-12-07T10:43:39.202Z,3.71429
2022-12-07T10:44:39.294Z,4
2022-12-07T10:45:46.892Z,4
2022-12-07T10:46:39.352Z,3.64286
2022-12-07T10:47:39.332Z,3.92857
2022-12-07T10:48:39.356Z,3.92857
2022-12-07T10:49:39.379Z,3.85714
2022-12-07T10:50:39.404Z,3.85714
2022-12-07T10:51:39.830Z,3.85714
2022-12-07T10:52:39.463Z,3.92857
2022-12-07T10:53:39.497Z,4
2022-12-07T10:54:39.513Z,4
2022-12-07T10:55:39.557Z,3.92857
2022-12-07T10:56:39.584Z,4.35714
2022-12-07T10:57:39.614Z,3.92857
2022-12-07T10:58:39.645Z,3.85714
2022-12-07T10:59:39.667Z,4
2022-12-07T11:00:39.738Z,4.21429
2022-12-07T11:01:39.805Z,4.5
2022-12-07T11:02:39.889Z,4.14286
2022-12-07T11:03:39.787Z,4
2022-12-07T11:04:39.819Z,4.21429
2022-12-07T11:05:39.854Z,4.64286
2022-12-07T11:06:39.880Z,4.21429
2022-12-07T11:07:39.958Z,4.35714
2022-12-07T11:08:39.948Z,4.21429
2022-12-07T11:10:07.193Z,3.92857
2022-12-07T11:10:40.002Z,4.5
2022-12-07T11:11:40.040Z,4
2022-12-07T11:12:40.074Z,4.21429
2022-12-07T11:13:40.163Z,4.64286
2022-12-07T11:14:40.152Z,4.35714
2022-12-07T11:15:40.175Z,4.35714
2022-12-07T11:16:40.298Z,5.14286
2022-12-07T11:17:40.243Z,4.5
2022-12-07T11:18:40.331Z,4.5
2022-12-07T11:19:40.305Z,4.35714
2022-12-07T11:20:40.335Z,4.35714
2022-12-07T11:21:40.364Z,4.35714
2022-12-07T11:22:40.391Z,4.21429
2022-12-07T11:23:40.428Z,4.71429
2022-12-07T11:24:40.453Z,4.71429
2022-12-07T11:25:40.491Z,4.35714
2022-12-07T11:26:40.524Z,4.92857
2022-12-07T11:27:40.546Z,5.5
2022-12-07T11:28:40.566Z,6.35714
2022-12-07T11:29:40.662Z,6
2022-12-07T11:30:40.631Z,6.14286
2022-12-07T11:31:40.731Z,5.92857
2022-12-07T11:32:40.692Z,4.71429
2022-12-07T11:33:40.724Z,4.85714
2022-12-07T11:34:40.763Z,9.14286
2022-12-07T11:35:40.790Z,8.64286
2022-12-07T11:36:40.821Z,5
2022-12-07T11:38:40.883Z,4.92857
2022-12-07T11:39:40.909Z,4.14286
2022-12-07T11:40:40.950Z,4.85714
2022-12-07T11:41:40.971Z,4.14286
2022-12-07T11:42:40.988Z,4.64286
2022-12-07T11:43:41.028Z,4.21429
2022-12-07T11:44:41.059Z,3.64286
2022-12-07T11:45:41.119Z,3.21429
2022-12-07T11:46:41.191Z,3.5
2022-12-07T11:47:41.153Z,3.21429
2022-12-07T11:48:41.179Z,3.14286
2022-12-07T11:49:41.209Z,3.64286
2022-12-07T11:50:41.241Z,3.42857
2022-12-07T11:51:41.429Z,3.21429
2022-12-07T11:52:41.455Z,4
2022-12-07T11:53:41.483Z,3.5
2022-12-07T11:54:41.509Z,3.64286
2022-12-07T11:55:41.541Z,3.35714
2022-12-07T11:56:41.575Z,3.5
2022-12-07T11:57:41.604Z,3.21429
2022-12-07T11:58:41.640Z,3.21429
2022-12-07T11:59:41.674Z,3
2022-12-07T12:00:41.697Z,3.35714
2022-12-07T12:01:41.823Z,3
2022-12-07T12:02:41.846Z,3.35714
2022-12-07T12:03:41.864Z,3
2022-12-07T12:04:41.808Z,3
2022-12-07T12:05:41.839Z,3.21429
2022-12-07T12:06:41.880Z,3.71429
2022-12-07T12:09:41.978Z,3.71429
2022-12-07T12:10:41.975Z,3.35714
2022-12-07T12:11:42.151Z,3.21429
2022-12-07T12:14:46.703Z,3.42857
2022-12-07T12:15:42.136Z,3
2022-12-07T12:16:42.184Z,3.14286
2022-12-07T12:17:42.186Z,3.14286
2022-12-07T12:18:42.212Z,3.14286
2022-12-07T12:19:42.308Z,3.71429
2022-12-07T12:20:42.270Z,3.42857
2022-12-07T12:21:42.324Z,3.64286
2022-12-07T12:22:42.336Z,3.64286
2022-12-07T12:23:42.371Z,3.14286
2022-12-07T12:24:42.429Z,3.35714
2022-12-07T12:25:42.465Z,3.42857
2022-12-07T12:26:42.469Z,3.35714
2022-12-07T12:27:42.491Z,3.14286
2022-12-07T12:28:45.434Z,3.14286
2022-12-07T12:29:42.555Z,3.35714
2022-12-07T12:30:42.587Z,3.14286
2022-12-07T12:31:43.145Z,3.5
2022-12-07T12:32:43.061Z,2.92857